Terminal Aerodrome Forecast
Issued by NWS

Home | Current Version | Previous Version | Graphics & Text | Print | Product List | Glossary On
Versions: 1 2 3 4 5 6 7 8 9 10 11 12 13 14 15 16 17 18
889
FTUS43 KABR 180525
TAFATY
TAF
KATY 180525Z 1806/1906 05007KT P6SM OVC120
     FM181100 03006KT P6SM VCSH OVC030
     FM181400 01008KT P6SM VCSH OVC015
     FM181600 35010KT P6SM OVC020
     FM190100 35008KT P6SM OVC035=

USA.gov is the U.S. government's official web portal to all federal, state and local government web resources and services.